createdAt,value
2023-02-06T00:00:50.896Z,4.10
2023-02-06T00:03:17.884Z,4.04
2023-02-06T00:05:44.366Z,4.06
2023-02-06T00:08:10.796Z,4.05
2023-02-06T00:10:37.212Z,3.97
2023-02-06T00:13:03.625Z,4.00
2023-02-06T00:15:30.023Z,4.02
2023-02-06T00:17:56.414Z,4.07
2023-02-06T00:20:22.827Z,4.12
2023-02-06T00:22:49.197Z,4.05
2023-02-06T00:25:15.673Z,4.02
2023-02-06T00:27:42.067Z,4.03
2023-02-06T00:30:08.813Z,4.12
2023-02-06T00:32:35.300Z,4.20
2023-02-06T00:35:01.815Z,4.10
2023-02-06T00:37:28.254Z,4.02
2023-02-06T00:39:54.661Z,4.06
2023-02-06T00:42:21.325Z,4.06
2023-02-06T00:44:47.780Z,4.08
2023-02-06T00:47:14.235Z,4.07
2023-02-06T00:49:40.720Z,4.03
2023-02-06T00:52:07.149Z,4.11
2023-02-06T00:54:33.574Z,4.03
2023-02-06T00:57:00.004Z,3.96
2023-02-06T00:59:26.439Z,4.03
2023-02-06T01:01:52.874Z,4.10
2023-02-06T01:04:19.297Z,4.06
2023-02-06T01:06:45.778Z,4.00
2023-02-06T01:09:12.242Z,4.08
2023-02-06T01:11:38.679Z,4.14
2023-02-06T01:14:05.306Z,4.17
2023-02-06T01:16:31.858Z,4.08
2023-02-06T01:18:58.272Z,4.08
2023-02-06T01:21:25.478Z,4.00
2023-02-06T01:23:54.240Z,3.95
2023-02-06T01:26:24.060Z,3.98
2023-02-06T01:28:50.717Z,3.90
2023-02-06T01:31:20.854Z,3.83
2023-02-06T01:33:48.735Z,3.97
2023-02-06T01:36:16.189Z,4.03
2023-02-06T01:38:43.150Z,3.99
2023-02-06T01:41:11.615Z,3.98
2023-02-06T01:43:46.535Z,3.95
2023-02-06T01:46:13.225Z,3.94
2023-02-06T01:48:54.432Z,3.89
2023-02-06T01:51:24.633Z,3.97
2023-02-06T01:53:55.382Z,4.02
2023-02-06T01:56:22.350Z,4.05
2023-02-06T01:58:53.481Z,3.98
2023-02-06T02:01:20.998Z,3.89
2023-02-06T02:03:50.927Z,3.87
2023-02-06T02:06:22.353Z,3.89
2023-02-06T02:08:52.507Z,3.88
2023-02-06T02:11:32.192Z,3.84
2023-02-06T02:13:59.577Z,3.90
2023-02-06T02:16:44.576Z,3.89
2023-02-06T02:19:48.266Z,3.92
2023-02-06T02:22:18.426Z,3.91
2023-02-06T02:24:59.670Z,3.88
2023-02-06T02:27:41.699Z,3.82
2023-02-06T02:30:32.617Z,3.80
2023-02-06T02:33:23.862Z,3.85
2023-02-06T02:36:09.773Z,3.84
2023-02-06T02:38:51.303Z,3.87
2023-02-06T02:41:42.998Z,3.79
2023-02-06T02:44:30.078Z,3.79
2023-02-06T02:47:01.826Z,3.89
2023-02-06T02:49:31.641Z,3.95
2023-02-06T02:51:59.345Z,4.01
2023-02-06T02:54:26.359Z,4.03
2023-02-06T02:56:58.079Z,3.91
2023-02-06T02:59:29.668Z,3.88
2023-02-06T03:01:57.634Z,3.78
2023-02-06T03:05:02.044Z,3.74
2023-02-06T03:07:51.041Z,3.83
2023-02-06T03:10:31.829Z,3.76
2023-02-06T03:13:23.036Z,3.74
2023-02-06T03:16:12.205Z,3.67
2023-02-06T03:18:44.408Z,3.67
2023-02-06T03:21:15.256Z,3.70
2023-02-06T03:23:44.983Z,3.70
2023-02-06T03:26:15.931Z,3.69
2023-02-06T03:28:55.098Z,3.85
2023-02-06T03:31:34.421Z,3.76
2023-02-06T03:34:13.100Z,3.67
2023-02-06T03:36:39.903Z,3.67
2023-02-06T03:39:06.743Z,3.66
2023-02-06T03:41:37.036Z,3.69
2023-02-06T03:44:08.500Z,3.64
2023-02-06T03:46:36.687Z,3.64
2023-02-06T03:49:07.298Z,3.74
2023-02-06T03:51:38.998Z,3.70
2023-02-06T03:54:06.290Z,3.78
2023-02-06T03:56:44.550Z,3.86
2023-02-06T03:59:11.273Z,3.81
2023-02-06T04:01:45.279Z,3.85
2023-02-06T04:04:15.499Z,3.82
2023-02-06T04:06:42.051Z,3.85
2023-02-06T04:09:08.560Z,3.86
2023-02-06T04:11:34.982Z,3.84
2023-02-06T04:14:01.426Z,3.86
2023-02-06T04:16:27.900Z,3.80
2023-02-06T04:18:54.503Z,3.74
2023-02-06T04:21:20.934Z,3.65
2023-02-06T04:23:47.359Z,3.65
2023-02-06T04:26:13.765Z,3.59
2023-02-06T04:28:40.139Z,3.60
2023-02-06T04:31:07.413Z,3.58
2023-02-06T04:33:33.970Z,3.63
2023-02-06T04:36:00.362Z,3.67
2023-02-06T04:38:26.816Z,3.69
2023-02-06T04:40:53.218Z,3.64
2023-02-06T04:43:19.615Z,3.66
2023-02-06T04:45:46.788Z,3.71
2023-02-06T04:48:13.165Z,3.76
2023-02-06T04:50:39.610Z,3.79
2023-02-06T04:53:06.009Z,3.73
2023-02-06T04:55:32.396Z,3.70
2023-02-06T04:57:58.835Z,3.75
2023-02-06T05:00:25.254Z,3.76
2023-02-06T05:02:51.771Z,3.78
2023-02-06T05:05:18.325Z,3.81
2023-02-06T05:07:44.735Z,3.87
2023-02-06T05:10:11.466Z,3.83
2023-02-06T05:12:37.984Z,3.77
2023-02-06T05:15:04.605Z,3.76
2023-02-06T05:17:30.994Z,3.65
2023-02-06T05:19:58.571Z,3.66
2023-02-06T05:22:25.222Z,3.72
2023-02-06T05:24:51.610Z,3.66
2023-02-06T05:27:18.031Z,3.61
2023-02-06T05:29:44.455Z,3.72
2023-02-06T05:32:10.955Z,3.75
2023-02-06T05:34:37.344Z,3.82
2023-02-06T05:37:03.749Z,3.84
2023-02-06T05:39:30.208Z,3.81
2023-02-06T05:41:56.736Z,3.68
2023-02-06T05:44:23.172Z,3.69
2023-02-06T05:46:49.555Z,3.63
2023-02-06T05:49:16.603Z,3.46
2023-02-06T05:51:43.058Z,3.42
2023-02-06T05:54:09.570Z,3.58
2023-02-06T05:56:35.967Z,3.56
2023-02-06T05:59:02.357Z,3.52
2023-02-06T06:01:29.165Z,3.58
2023-02-06T06:03:56.264Z,3.68
2023-02-06T06:06:22.795Z,3.64
2023-02-06T06:08:49.183Z,3.62
2023-02-06T06:11:16.059Z,3.69
2023-02-06T06:13:42.476Z,3.63
2023-02-06T06:16:09.002Z,3.53
2023-02-06T06:18:35.451Z,3.58
2023-02-06T06:21:11.783Z,3.45
2023-02-06T06:23:49.929Z,3.40
2023-02-06T06:26:25.371Z,3.41
2023-02-06T06:29:13.027Z,3.33
2023-02-06T06:31:39.608Z,3.35
2023-02-06T06:34:06.139Z,3.45
2023-02-06T06:36:32.561Z,3.36
2023-02-06T06:38:59.017Z,3.42
2023-02-06T06:41:25.482Z,3.40
2023-02-06T06:43:56.008Z,3.37
2023-02-06T06:46:22.800Z,3.29
2023-02-06T06:48:56.326Z,3.29
2023-02-06T06:51:23.677Z,3.26
2023-02-06T06:53:50.080Z,3.38
2023-02-06T06:56:16.485Z,3.53
2023-02-06T06:58:43.057Z,3.51
2023-02-06T07:01:09.673Z,3.46
2023-02-06T07:03:36.723Z,3.38
2023-02-06T07:06:03.822Z,3.48
2023-02-06T07:08:30.428Z,3.58
2023-02-06T07:10:57.977Z,3.58
2023-02-06T07:13:24.587Z,3.60
2023-02-06T07:15:51.027Z,3.56
2023-02-06T07:18:17.444Z,3.54
2023-02-06T07:20:43.891Z,3.61
2023-02-06T07:23:10.678Z,3.70
2023-02-06T07:25:37.334Z,3.77
2023-02-06T07:28:04.753Z,3.82
2023-02-06T07:30:31.434Z,3.87
2023-02-06T07:33:01.318Z,3.87
2023-02-06T07:35:28.105Z,3.90
2023-02-06T07:37:58.023Z,4.02
2023-02-06T07:40:26.264Z,4.02
2023-02-06T07:43:05.610Z,3.94
2023-02-06T07:45:32.733Z,3.85
2023-02-06T07:47:59.225Z,3.78
2023-02-06T07:50:25.654Z,3.87
2023-02-06T07:52:52.158Z,3.89
2023-02-06T07:55:18.572Z,3.97
2023-02-06T07:57:44.991Z,4.02
2023-02-06T08:00:12.092Z,4.06
2023-02-06T08:02:38.738Z,4.17
2023-02-06T08:05:08.590Z,4.27
2023-02-06T08:07:41.030Z,4.14
2023-02-06T08:10:07.943Z,4.05
2023-02-06T08:12:44.276Z,4.21
2023-02-06T08:15:10.742Z,4.26
2023-02-06T08:17:37.205Z,4.31
2023-02-06T08:20:03.713Z,4.28
2023-02-06T08:22:30.302Z,4.21
2023-02-06T08:24:59.142Z,4.09
2023-02-06T08:27:25.651Z,4.24
2023-02-06T08:29:52.250Z,4.18
2023-02-06T08:32:18.661Z,4.13
2023-02-06T08:34:45.140Z,4.19
2023-02-06T08:37:11.973Z,4.35
2023-02-06T08:39:38.471Z,4.38
2023-02-06T08:42:05.295Z,4.45
2023-02-06T08:44:32.337Z,4.45
2023-02-06T08:47:09.161Z,4.51
2023-02-06T08:49:36.207Z,4.57
2023-02-06T08:52:02.750Z,4.56
2023-02-06T08:54:29.179Z,4.60
2023-02-06T08:57:00.901Z,4.72
2023-02-06T08:59:29.377Z,4.81
2023-02-06T09:01:55.863Z,4.88
2023-02-06T09:04:22.327Z,4.91
2023-02-06T09:06:49.347Z,4.96
2023-02-06T09:09:16.441Z,4.91
2023-02-06T09:11:52.191Z,5.01
2023-02-06T09:14:18.671Z,5.07
2023-02-06T09:16:47.916Z,5.01
2023-02-06T09:19:14.536Z,4.90
2023-02-06T09:21:41.642Z,5.03
2023-02-06T09:24:09.145Z,5.17
2023-02-06T09:26:44.813Z,5.15
2023-02-06T09:29:16.706Z,5.13
2023-02-06T09:31:43.446Z,5.19
2023-02-06T09:34:12.241Z,5.51
2023-02-06T09:36:38.735Z,5.60
2023-02-06T09:39:12.122Z,5.68
2023-02-06T09:41:55.072Z,5.69
2023-02-06T09:44:32.909Z,5.67
2023-02-06T09:47:27.589Z,5.72
2023-02-06T09:50:30.806Z,5.72
2023-02-06T09:53:22.932Z,5.45
2023-02-06T09:56:01.683Z,5.63
2023-02-06T09:58:31.576Z,5.56
2023-02-06T10:01:00.998Z,5.84
2023-02-06T10:03:56.088Z,5.73
2023-02-06T10:06:27.569Z,5.60
2023-02-06T10:09:14.696Z,5.75
2023-02-06T10:11:52.463Z,5.77
2023-02-06T10:14:22.791Z,5.88
2023-02-06T10:17:00.456Z,5.92
2023-02-06T10:19:52.123Z,5.88
2023-02-06T10:22:31.362Z,5.85
2023-02-06T10:25:12.975Z,5.61
2023-02-06T10:27:42.334Z,5.59
2023-02-06T10:30:22.336Z,5.80
2023-02-06T10:33:26.502Z,5.93
2023-02-06T10:36:24.641Z,5.95
2023-02-06T10:39:21.722Z,6.04
2023-02-06T10:42:38.471Z,5.82
2023-02-06T10:45:24.153Z,5.77
2023-02-06T10:48:11.382Z,5.89
2023-02-06T10:50:48.510Z,6.04
2023-02-06T10:53:29.276Z,6.05
2023-02-06T10:56:10.190Z,6.16
2023-02-06T10:58:57.278Z,6.04
2023-02-06T11:01:27.064Z,6.09
2023-02-06T11:04:05.866Z,6.33
2023-02-06T11:06:33.393Z,6.61
2023-02-06T11:09:10.652Z,6.60
2023-02-06T11:11:54.233Z,6.25
2023-02-06T11:14:50.638Z,6.44
2023-02-06T11:17:20.373Z,6.44
2023-02-06T11:19:51.202Z,6.43
2023-02-06T11:22:28.550Z,6.47
2023-02-06T11:25:05.740Z,6.58
2023-02-06T11:27:33.637Z,6.63
2023-02-06T11:30:09.148Z,6.32
2023-02-06T11:32:59.051Z,6.31
2023-02-06T11:35:40.087Z,6.28
2023-02-06T11:38:21.954Z,6.42
2023-02-06T11:40:56.087Z,6.45
2023-02-06T11:43:25.756Z,6.52
2023-02-06T11:46:07.843Z,6.62
2023-02-06T11:48:56.138Z,6.63
2023-02-06T11:51:24.456Z,6.31
2023-02-06T11:54:02.517Z,6.44
2023-02-06T11:56:31.233Z,6.25
2023-02-06T11:59:07.321Z,6.07
2023-02-06T12:01:45.595Z,6.28
2023-02-06T12:04:25.051Z,6.42
2023-02-06T12:07:26.077Z,6.51
2023-02-06T12:09:52.524Z,6.46
2023-02-06T12:12:35.910Z,6.35
2023-02-06T12:15:36.240Z,6.28
2023-02-06T12:18:03.730Z,6.30
2023-02-06T12:20:33.211Z,6.25
2023-02-06T12:23:07.681Z,6.47
2023-02-06T12:25:38.395Z,6.67
2023-02-06T12:28:28.778Z,6.67
2023-02-06T12:30:59.068Z,6.58
2023-02-06T12:33:36.158Z,6.37
2023-02-06T12:36:20.895Z,6.27
2023-02-06T12:39:00.955Z,6.34
2023-02-06T12:41:47.362Z,6.54
2023-02-06T12:44:28.513Z,6.62
2023-02-06T12:47:01.232Z,6.47
2023-02-06T12:49:35.295Z,6.41
2023-02-06T12:52:12.985Z,6.25
2023-02-06T12:54:45.574Z,6.21
2023-02-06T12:57:18.626Z,6.25
2023-02-06T13:00:22.695Z,6.24
2023-02-06T13:03:23.046Z,6.47
2023-02-06T13:05:59.953Z,6.61
2023-02-06T13:08:41.039Z,6.66
2023-02-06T13:11:15.511Z,6.59
2023-02-06T13:13:42.730Z,6.53
2023-02-06T13:16:10.113Z,6.44
2023-02-06T13:18:44.526Z,6.41
2023-02-06T13:21:13.808Z,6.25
2023-02-06T13:24:06.544Z,6.18
2023-02-06T13:26:51.348Z,6.28
2023-02-06T13:29:29.007Z,6.23
2023-02-06T13:32:10.716Z,6.29
2023-02-06T13:34:42.635Z,6.07
2023-02-06T13:37:38.502Z,6.24
2023-02-06T13:40:30.615Z,6.44
2023-02-06T13:43:21.271Z,6.45
2023-02-06T13:46:11.937Z,6.31
2023-02-06T13:49:20.354Z,6.15
2023-02-06T13:52:17.875Z,5.95
2023-02-06T13:54:59.702Z,5.93
2023-02-06T13:57:26.037Z,6.03
2023-02-06T14:00:02.902Z,5.95
2023-02-06T14:02:39.799Z,5.93
2023-02-06T14:05:11.302Z,5.88
2023-02-06T14:07:59.815Z,5.90
2023-02-06T14:11:00.415Z,6.16
2023-02-06T14:13:58.046Z,5.83
2023-02-06T14:16:40.639Z,5.93
2023-02-06T14:19:55.326Z,5.71
2023-02-06T14:22:44.443Z,5.76
2023-02-06T14:25:25.549Z,5.83
2023-02-06T14:28:29.623Z,5.86
2023-02-06T14:31:15.324Z,5.90
2023-02-06T14:33:50.702Z,5.92
2023-02-06T14:36:44.973Z,5.77
2023-02-06T14:39:47.822Z,5.68
2023-02-06T14:42:47.205Z,5.63
2023-02-06T14:45:38.607Z,5.69
2023-02-06T14:48:19.874Z,5.77
2023-02-06T14:50:50.856Z,5.61
2023-02-06T14:53:27.286Z,5.57
2023-02-06T14:56:15.666Z,5.55
2023-02-06T14:58:46.199Z,5.50
2023-02-06T15:01:18.949Z,5.55
2023-02-06T15:03:47.583Z,5.46
2023-02-06T15:06:28.222Z,5.44
2023-02-06T15:08:54.826Z,5.44
2023-02-06T15:11:25.201Z,5.43
2023-02-06T15:13:55.037Z,5.42
2023-02-06T15:16:22.215Z,5.33
2023-02-06T15:18:49.067Z,5.21
2023-02-06T15:21:17.860Z,5.23
2023-02-06T15:24:09.483Z,5.17
2023-02-06T15:26:47.665Z,5.16
2023-02-06T15:29:23.547Z,5.14
2023-02-06T15:31:53.067Z,5.06
2023-02-06T15:34:22.856Z,5.06
2023-02-06T15:36:49.757Z,5.01
2023-02-06T15:39:17.924Z,4.99
2023-02-06T15:41:48.146Z,5.00
2023-02-06T15:44:28.334Z,4.97
2023-02-06T15:46:56.447Z,4.95
2023-02-06T15:49:42.353Z,4.91
2023-02-06T15:52:13.805Z,4.85
2023-02-06T15:54:42.653Z,4.80
2023-02-06T15:57:30.558Z,4.81
2023-02-06T15:59:57.286Z,4.70
2023-02-06T16:02:33.142Z,4.74
2023-02-06T16:05:01.237Z,4.67
2023-02-06T16:07:32.003Z,4.73
2023-02-06T16:10:23.532Z,4.71
2023-02-06T16:12:51.284Z,4.68
2023-02-06T16:15:28.757Z,4.63
2023-02-06T16:17:56.189Z,4.63
2023-02-06T16:20:34.271Z,4.54
2023-02-06T16:23:24.001Z,4.57
2023-02-06T16:26:14.498Z,4.55
2023-02-06T16:28:49.954Z,4.60
2023-02-06T16:31:16.885Z,4.52
2023-02-06T16:33:46.945Z,4.47
2023-02-06T16:36:15.484Z,4.43
2023-02-06T16:38:48.294Z,4.39
2023-02-06T16:41:51.033Z,4.33
2023-02-06T16:44:18.007Z,4.33
2023-02-06T16:46:46.420Z,4.34
2023-02-06T16:49:15.436Z,4.22
2023-02-06T16:51:43.843Z,4.19
2023-02-06T16:54:20.682Z,4.13
2023-02-06T16:56:47.398Z,4.14
2023-02-06T16:59:13.826Z,4.15
2023-02-06T17:01:40.269Z,4.13
2023-02-06T17:04:06.694Z,4.10
2023-02-06T17:06:35.037Z,4.03
2023-02-06T17:09:06.505Z,4.05
2023-02-06T17:11:33.275Z,4.05
2023-02-06T17:13:59.957Z,4.07
2023-02-06T17:16:28.297Z,3.98
2023-02-06T17:18:55.491Z,3.96
2023-02-06T17:21:23.847Z,3.95
2023-02-06T17:23:51.133Z,3.95
2023-02-06T17:26:22.467Z,3.97
2023-02-06T17:28:49.924Z,3.90
2023-02-06T17:31:16.625Z,3.88
2023-02-06T17:33:43.082Z,3.86
2023-02-06T17:36:19.183Z,3.88
2023-02-06T17:38:45.659Z,3.96
2023-02-06T17:41:12.141Z,3.94
2023-02-06T17:43:38.648Z,3.87
2023-02-06T17:46:06.421Z,3.82
2023-02-06T17:48:36.674Z,3.81
2023-02-06T17:51:04.977Z,4.34
2023-02-06T17:53:31.421Z,3.96
2023-02-06T17:55:57.890Z,3.75
2023-02-06T17:58:24.373Z,3.77
2023-02-06T18:00:50.869Z,3.69
2023-02-06T18:03:18.432Z,3.72
2023-02-06T18:05:47.035Z,3.69
2023-02-06T18:08:14.269Z,3.66
2023-02-06T18:10:40.701Z,3.71
2023-02-06T18:13:07.126Z,3.65
2023-02-06T18:15:33.638Z,3.65
2023-02-06T18:18:00.125Z,3.68
2023-02-06T18:20:26.592Z,3.67
2023-02-06T18:22:53.024Z,3.67
2023-02-06T18:25:19.549Z,3.58
2023-02-06T18:27:46.271Z,3.63
2023-02-06T18:30:14.587Z,3.67
2023-02-06T18:32:41.458Z,3.65
2023-02-06T18:35:08.429Z,3.69
2023-02-06T18:37:35.036Z,3.68
2023-02-06T18:40:01.507Z,3.71
2023-02-06T18:42:46.596Z,3.79
2023-02-06T18:45:13.156Z,3.80
2023-02-06T18:47:42.202Z,3.88
2023-02-06T18:50:10.609Z,3.88
2023-02-06T18:52:37.149Z,3.76
2023-02-06T18:55:04.169Z,3.68
2023-02-06T18:57:30.611Z,3.67
2023-02-06T18:59:57.181Z,3.70
2023-02-06T19:02:23.637Z,3.73
2023-02-06T19:04:50.222Z,3.71
2023-02-06T19:07:16.746Z,3.75
2023-02-06T19:09:43.248Z,3.70
2023-02-06T19:12:10.147Z,3.70
2023-02-06T19:14:36.684Z,3.68
2023-02-06T19:17:03.247Z,3.71
2023-02-06T19:19:29.660Z,3.58
2023-02-06T19:21:56.549Z,3.59
2023-02-06T19:24:23.417Z,3.48
2023-02-06T19:26:49.898Z,3.42
2023-02-06T19:29:33.652Z,3.48
2023-02-06T19:32:02.002Z,3.32
2023-02-06T19:34:28.488Z,3.29
2023-02-06T19:36:54.883Z,3.11
2023-02-06T19:39:21.355Z,3.08
2023-02-06T19:41:47.836Z,3.10
2023-02-06T19:44:14.594Z,2.90
2023-02-06T19:46:41.119Z,2.88
2023-02-06T19:49:08.728Z,2.77
2023-02-06T19:51:38.958Z,2.66
2023-02-06T19:54:05.862Z,2.60
2023-02-06T19:56:40.700Z,2.56
2023-02-06T19:59:20.210Z,2.55
2023-02-06T20:01:52.255Z,2.55
2023-02-06T20:04:20.224Z,2.47
2023-02-06T20:06:47.121Z,2.46
2023-02-06T20:09:14.987Z,2.44
2023-02-06T20:11:42.508Z,2.49
2023-02-06T20:14:09.973Z,2.36
2023-02-06T20:16:39.800Z,2.27
2023-02-06T20:19:24.882Z,2.17
2023-02-06T20:21:54.756Z,2.27
2023-02-06T20:24:24.253Z,2.17
2023-02-06T20:26:55.942Z,2.17
2023-02-06T20:29:32.200Z,2.26
2023-02-06T20:31:59.124Z,2.26
2023-02-06T20:34:26.998Z,2.04
2023-02-06T20:36:54.267Z,1.93
2023-02-06T20:39:21.535Z,1.87
2023-02-06T20:41:49.536Z,1.85
2023-02-06T20:44:17.047Z,1.97
2023-02-06T20:46:45.261Z,1.90
2023-02-06T20:49:18.383Z,1.87
2023-02-06T20:51:44.881Z,1.92
2023-02-06T20:54:11.618Z,1.91
2023-02-06T20:56:39.272Z,1.81
2023-02-06T20:59:06.361Z,1.75
2023-02-06T21:01:32.975Z,1.82
2023-02-06T21:04:04.243Z,1.76
2023-02-06T21:06:31.723Z,1.67
2023-02-06T21:09:00.774Z,1.66
2023-02-06T21:11:35.306Z,1.85
2023-02-06T21:14:04.090Z,1.78
2023-02-06T21:16:32.193Z,1.84
2023-02-06T21:18:59.484Z,1.87
2023-02-06T21:21:26.373Z,1.87
2023-02-06T21:23:55.701Z,1.96
2023-02-06T21:26:23.676Z,1.95
2023-02-06T21:28:51.331Z,2.06
2023-02-06T21:31:36.052Z,2.05
2023-02-06T21:34:17.811Z,1.89
2023-02-06T21:36:45.315Z,1.93
2023-02-06T21:39:16.042Z,1.92
2023-02-06T21:41:43.493Z,1.84
2023-02-06T21:44:10.067Z,1.81
2023-02-06T21:46:36.965Z,1.85
2023-02-06T21:49:03.812Z,1.90
2023-02-06T21:51:30.659Z,1.86
2023-02-06T21:53:57.261Z,1.93
2023-02-06T21:56:26.853Z,1.99
2023-02-06T21:58:53.652Z,1.85
2023-02-06T22:01:26.497Z,1.80
2023-02-06T22:03:53.235Z,1.79
2023-02-06T22:06:20.035Z,1.84
2023-02-06T22:08:51.361Z,1.82
2023-02-06T22:11:21.078Z,1.84
2023-02-06T22:13:48.403Z,1.90
2023-02-06T22:16:20.564Z,1.81
2023-02-06T22:18:47.236Z,1.79
2023-02-06T22:21:16.690Z,1.81
2023-02-06T22:23:44.345Z,1.76
2023-02-06T22:26:13.438Z,1.77
2023-02-06T22:28:41.317Z,1.77
2023-02-06T22:31:20.696Z,1.76
2023-02-06T22:33:47.776Z,1.73
2023-02-06T22:36:18.706Z,1.81
2023-02-06T22:38:47.000Z,1.84
2023-02-06T22:41:16.172Z,1.79
2023-02-06T22:43:44.408Z,1.67
2023-02-06T22:46:22.446Z,1.66
2023-02-06T22:48:49.653Z,1.82
2023-02-06T22:51:16.986Z,1.58
2023-02-06T22:53:43.898Z,1.59
2023-02-06T22:56:29.323Z,1.53
2023-02-06T22:59:01.580Z,1.41
2023-02-06T23:01:35.073Z,1.42
2023-02-06T23:04:03.397Z,1.35
2023-02-06T23:06:31.683Z,1.30
2023-02-06T23:08:58.966Z,1.30
2023-02-06T23:11:26.192Z,1.27
2023-02-06T23:13:57.619Z,1.24
2023-02-06T23:16:24.999Z,1.22
2023-02-06T23:18:51.474Z,1.20
2023-02-06T23:21:20.855Z,1.13
2023-02-06T23:23:51.261Z,1.03
2023-02-06T23:26:19.159Z,1.06
2023-02-06T23:28:46.034Z,1.04
2023-02-06T23:31:13.050Z,1.07
2023-02-06T23:33:40.586Z,0.99
2023-02-06T23:36:26.716Z,1.01
2023-02-06T23:38:53.395Z,1.02
2023-02-06T23:44:10.541Z,0.79
2023-02-06T23:46:38.553Z,0.69
2023-02-06T23:49:06.462Z,0.65
2023-02-06T23:51:33.796Z,0.62
2023-02-06T23:54:00.330Z,0.55
2023-02-06T23:56:29.145Z,0.43
2023-02-06T23:58:57.174Z,0.48
